Time;durP1;ratioP1;P1;durP2;ratioP2;P2;SDS_P1;SDS_P2;PMS_P1;PMS_P2;Temp;Humidity;BMP_temperature;BMP_pressure;BME280_temperature;BME280_humidity;BME280_pressure;Samples;Min_cycle;Max_cycle;Signal;HPM_P1;HPM_P2
2023/06/09 00:00:57;;;;;;;;;26.75;22.25;;;;;24.50;44.75;100491.13;6188368;23;44864;-68
2023/06/09 00:03:22;;;;;;;;;23.00;17.00;;;;;24.46;45.00;100488.50;6188976;23;45151;-68
2023/06/09 00:05:48;;;;;;;;;23.25;20.75;;;;;24.45;44.79;100497.66;6190400;23;45695;-68
2023/06/09 00:08:14;;;;;;;;;20.75;19.25;;;;;24.44;45.09;100492.25;6190740;22;44992;-69
2023/06/09 00:10:39;;;;;;;;;20.25;18.75;;;;;24.42;45.05;100494.16;6190567;22;45210;-71
2023/06/09 00:13:04;;;;;;;;;19.75;16.50;;;;;24.40;45.46;100490.56;6192294;23;45112;-67
2023/06/09 00:15:30;;;;;;;;;24.75;18.00;;;;;24.35;45.24;100484.38;6191402;22;46300;-72
2023/06/09 00:17:56;;;;;;;;;22.00;17.00;;;;;24.25;45.26;100462.88;6190193;23;45005;-67
2023/06/09 00:20:22;;;;;;;;;20.00;18.75;;;;;24.33;45.50;100478.97;6191256;22;45165;-65
2023/06/09 00:22:48;;;;;;;;;24.00;18.75;;;;;24.33;45.44;100484.41;6191001;22;45138;-65
2023/06/09 00:25:15;;;;;;;;;19.00;19.00;;;;;24.28;45.36;100479.09;6191004;22;46168;-65
2023/06/09 00:27:43;;;;;;;;;22.25;18.50;;;;;24.30;45.50;100481.78;6190410;23;44971;-66
2023/06/09 00:30:10;;;;;;;;;16.75;16.00;;;;;24.29;45.28;100471.84;6189741;22;45384;-63
2023/06/09 00:32:36;;;;;;;;;20.25;20.25;;;;;24.28;45.21;100468.19;6190382;22;45146;-65
2023/06/09 00:35:05;;;;;;;;;20.50;19.75;;;;;24.28;45.43;100489.16;6190666;22;45404;-66
2023/06/09 00:37:31;;;;;;;;;29.25;23.00;;;;;24.18;45.76;100472.19;6187322;23;45282;-64
2023/06/09 00:39:57;;;;;;;;;18.00;15.75;;;;;24.17;45.71;100474.97;6179122;22;45494;-65
2023/06/09 00:42:23;;;;;;;;;25.75;19.25;;;;;24.09;45.75;100478.00;6180067;22;45435;-64
2023/06/09 00:44:48;;;;;;;;;26.75;19.25;;;;;24.08;46.10;100465.28;6180013;22;45535;-63
2023/06/09 00:47:16;;;;;;;;;17.50;16.50;;;;;24.02;46.15;100454.56;6179230;22;45227;-67
2023/06/09 00:49:43;;;;;;;;;21.25;15.00;;;;;24.05;45.90;100460.78;6180205;22;45377;-65
2023/06/09 00:52:09;;;;;;;;;27.50;21.25;;;;;24.03;45.94;100464.53;6180308;23;45371;-68
2023/06/09 00:54:36;;;;;;;;;18.50;17.00;;;;;24.00;46.00;100460.06;6182186;22;45339;-66
2023/06/09 00:57:03;;;;;;;;;24.50;19.00;;;;;23.98;46.01;100455.63;6178827;22;45418;-67
2023/06/09 00:59:29;;;;;;;;;21.00;19.75;;;;;23.99;46.43;100454.66;6178121;23;45310;-64
2023/06/09 01:01:55;;;;;;;;;18.25;16.00;;;;;23.99;46.73;100450.13;6181683;22;45462;-66
2023/06/09 01:04:20;;;;;;;;;19.75;19.75;;;;;23.99;46.60;100463.75;6179887;22;45459;-63
2023/06/09 01:06:56;;;;;;;;;22.50;19.25;;;;;23.94;46.57;100459.38;6180797;23;47114;-66
2023/06/09 01:26:14;;;;;;;;;18.75;17.00;;;;;23.70;46.97;100434.69;6149550;23;46999;-67
2023/06/09 01:28:43;;;;;;;;;16.25;16.25;;;;;23.72;47.13;100436.41;6178037;22;47588;-64
2023/06/09 01:31:11;;;;;;;;;15.00;14.25;;;;;23.67;47.40;100434.78;6176478;23;45478;-65
2023/06/09 01:33:38;;;;;;;;;24.25;21.50;;;;;23.62;47.49;100436.75;6179030;22;45304;-67
2023/06/09 01:36:04;;;;;;;;;20.00;15.25;;;;;23.61;47.76;100433.16;6179595;22;45349;-67
2023/06/09 01:38:30;;;;;;;;;23.75;20.75;;;;;23.57;47.83;100431.47;6179770;22;45996;-65
2023/06/09 01:40:55;;;;;;;;;20.75;18.25;;;;;23.55;47.83;100430.63;6178545;23;45709;-70
2023/06/09 01:43:20;;;;;;;;;24.75;19.75;;;;;23.50;48.10;100429.88;6184920;22;45431;-66
2023/06/09 01:45:46;;;;;;;;;22.75;19.00;;;;;23.44;48.05;100425.50;6181872;22;45445;-65
2023/06/09 01:48:26;;;;;;;;;18.50;18.50;;;;;23.41;48.05;100422.88;6180233;22;47611;-67
2023/06/09 01:51:03;;;;;;;;;21.00;19.25;;;;;23.23;48.03;100418.91;6178813;22;45266;-68
2023/06/09 01:53:36;;;;;;;;;23.25;21.75;;;;;23.25;48.54;100419.75;6178144;22;45355;-66
2023/06/09 01:56:17;;;;;;;;;24.25;22.25;;;;;23.22;48.49;100425.31;6178834;23;45304;-68
2023/06/09 01:58:46;;;;;;;;;22.00;21.00;;;;;23.20;48.28;100429.91;6177714;22;45461;-66
2023/06/09 02:01:16;;;;;;;;;20.75;19.25;;;;;23.14;48.63;100433.69;6178569;22;45248;-66
2023/06/09 02:03:44;;;;;;;;;20.75;19.00;;;;;23.07;48.57;100425.78;6179111;22;45326;-65
2023/06/09 02:06:11;;;;;;;;;19.25;17.50;;;;;23.04;48.51;100424.00;6179381;23;45386;-66
2023/06/09 02:08:37;;;;;;;;;18.75;17.75;;;;;23.07;48.86;100423.94;6177799;23;46173;-65
2023/06/09 02:11:03;;;;;;;;;20.75;17.00;;;;;22.97;48.86;100416.97;6178189;22;45459;-68
2023/06/09 02:13:29;;;;;;;;;25.50;18.75;;;;;22.95;49.03;100410.63;6179466;22;45258;-66
2023/06/09 02:15:55;;;;;;;;;26.25;20.50;;;;;22.99;48.82;100429.56;6179077;22;50342;-67
2023/06/09 02:18:21;;;;;;;;;22.00;21.00;;;;;23.00;48.86;100428.66;6178770;22;45439;-66
2023/06/09 02:20:47;;;;;;;;;14.67;14.33;;;;;22.97;49.23;100415.13;6178105;23;45254;-65
2023/06/09 02:23:15;;;;;;;;;19.25;17.75;;;;;22.87;49.28;100404.53;6179204;22;45503;-70
2023/06/09 02:25:40;;;;;;;;;22.33;19.33;;;;;22.90;48.91;100413.53;6175772;23;45374;-65
2023/06/09 02:28:06;;;;;;;;;16.50;14.75;;;;;22.91;49.33;100408.97;6175924;23;47563;-66
2023/06/09 02:30:32;;;;;;;;;18.00;17.25;;;;;22.92;49.04;100414.38;6178608;22;45480;-63
2023/06/09 02:32:59;;;;;;;;;18.25;16.50;;;;;22.92;49.37;100411.66;6179428;22;45415;-66
2023/06/09 02:35:26;;;;;;;;;21.67;20.67;;;;;22.89;49.25;100406.28;6177252;23;45525;-66
2023/06/09 02:37:52;;;;;;;;;23.00;21.33;;;;;22.88;49.41;100403.59;6177537;23;46866;-63
2023/06/09 02:40:21;;;;;;;;;21.00;19.00;;;;;22.75;49.43;100375.84;6178587;22;45487;-63
2023/06/09 02:42:46;;;;;;;;;27.00;18.50;;;;;22.81;49.39;100389.28;6178917;23;45467;-67
2023/06/09 02:45:12;;;;;;;;;21.75;19.50;;;;;22.82;49.43;100397.41;6178950;23;45374;-65
2023/06/09 02:47:38;;;;;;;;;22.50;19.25;;;;;22.77;49.60;100391.19;6178286;22;45653;-63
2023/06/09 02:50:05;;;;;;;;;17.25;16.50;;;;;22.78;49.66;100392.97;6178438;22;45255;-64
2023/06/09 02:52:31;;;;;;;;;20.50;20.00;;;;;22.75;49.47;100390.38;6177949;22;45424;-66
2023/06/09 02:54:59;;;;;;;;;20.00;18.00;;;;;22.67;49.52;100372.44;6178472;22;45429;-65
2023/06/09 02:57:27;;;;;;;;;21.00;20.25;;;;;22.76;49.67;100391.25;6178121;22;45488;-65
2023/06/09 02:59:53;;;;;;;;;20.75;18.00;;;;;22.76;49.75;100403.03;6178077;22;45504;-65
2023/06/09 03:02:19;;;;;;;;;23.50;19.00;;;;;22.63;49.81;100393.44;6177648;22;45436;-71
2023/06/09 03:04:45;;;;;;;;;26.00;23.50;;;;;22.58;49.91;100382.66;6178945;22;45408;-67
2023/06/09 03:07:13;;;;;;;;;22.00;18.00;;;;;22.63;50.09;100402.47;6178129;22;46023;-67
2023/06/09 03:09:39;;;;;;;;;18.25;18.25;;;;;22.36;50.10;100351.59;6177651;23;45219;-66
2023/06/09 03:12:06;;;;;;;;;22.25;21.50;;;;;22.61;49.77;100398.03;6179268;22;45445;-68
2023/06/09 03:14:32;;;;;;;;;30.25;25.00;;;;;22.54;50.02;100381.00;6178180;22;45516;-64
2023/06/09 03:16:58;;;;;;;;;24.33;19.67;;;;;22.63;50.00;100399.75;6176309;22;45470;-66
2023/06/09 03:19:24;;;;;;;;;20.50;18.75;;;;;22.63;50.12;100399.75;6178155;23;45251;-66
2023/06/09 03:21:49;;;;;;;;;19.75;17.50;;;;;22.56;50.27;100405.44;6178802;22;45246;-65
2023/06/09 03:24:15;;;;;;;;;19.75;19.75;;;;;22.42;50.21;100387.69;6179220;22;45533;-64
2023/06/09 03:26:41;;;;;;;;;20.00;16.50;;;;;22.54;50.38;100408.22;6177814;22;45345;-65
2023/06/09 03:29:06;;;;;;;;;22.00;21.00;;;;;22.52;49.90;100407.38;6178905;22;45492;-65
2023/06/09 03:31:32;;;;;;;;;21.25;18.50;;;;;22.51;50.42;100407.41;6175498;23;45558;-68
2023/06/09 03:33:57;;;;;;;;;26.75;25.00;;;;;22.50;50.41;100411.94;6181597;23;45425;-65
2023/06/09 03:36:23;;;;;;;;;23.25;18.75;;;;;22.44;50.45;100399.41;6183419;23;57051;-65
2023/06/09 03:38:49;;;;;;;;;23.67;18.33;;;;;22.41;50.58;100404.06;6182128;22;45551;-63
2023/06/09 03:41:15;;;;;;;;;20.50;15.75;;;;;22.40;50.51;100394.09;6179203;22;45168;-64
2023/06/09 03:43:40;;;;;;;;;29.00;23.50;;;;;22.30;50.43;100379.84;6176721;23;45405;-67
2023/06/09 03:46:06;;;;;;;;;20.25;18.25;;;;;22.30;50.63;100389.84;6180164;22;46290;-66
2023/06/09 03:48:31;;;;;;;;;22.25;21.00;;;;;22.33;50.72;100400.66;6180541;22;45256;-65
2023/06/09 03:50:57;;;;;;;;;28.00;21.50;;;;;22.33;50.65;100397.94;6177547;23;45217;-66
2023/06/09 03:53:23;;;;;;;;;17.75;15.75;;;;;22.26;50.57;100391.75;6180745;22;45553;-70
2023/06/09 03:55:48;;;;;;;;;21.25;18.50;;;;;22.34;50.66;100400.63;6179991;22;46043;-68
2023/06/09 03:58:14;;;;;;;;;16.00;16.00;;;;;22.31;50.69;100394.38;6179915;23;45500;-67
2023/06/09 04:00:39;;;;;;;;;24.00;21.00;;;;;22.29;50.73;100390.78;6180901;22;45302;-67
2023/06/09 04:03:06;;;;;;;;;27.50;19.00;;;;;22.33;50.67;100396.09;6178460;23;45681;-65
2023/06/09 04:05:32;;;;;;;;;20.50;18.50;;;;;21.98;50.68;100339.91;6178714;22;45462;-66
2023/06/09 04:07:57;;;;;;;;;20.75;20.75;;;;;22.31;50.83;100406.13;6179375;22;45267;-66
2023/06/09 04:10:22;;;;;;;;;22.75;18.25;;;;;22.29;50.82;100396.22;6179896;22;45342;-66
2023/06/09 04:12:48;;;;;;;;;19.50;19.50;;;;;22.25;50.42;100393.53;6180049;22;45580;-66
2023/06/09 04:15:13;;;;;;;;;27.25;22.75;;;;;22.27;50.60;100385.34;6178829;23;46374;-74
2023/06/09 04:17:39;;;;;;;;;26.00;22.75;;;;;22.27;50.70;100380.81;6178965;22;45334;-65
2023/06/09 04:20:07;;;;;;;;;24.00;21.50;;;;;22.30;50.73;100395.28;6184705;22;45156;-66
2023/06/09 04:22:33;;;;;;;;;27.00;22.25;;;;;22.30;50.79;100395.28;6191276;23;44937;-66
2023/06/09 04:24:58;;;;;;;;;28.75;24.50;;;;;22.25;50.76;100388.09;6190458;22;45435;-66
2023/06/09 04:27:25;;;;;;;;;27.25;22.75;;;;;22.25;50.55;100392.66;6191142;23;45071;-68
2023/06/09 04:29:51;;;;;;;;;21.25;21.00;;;;;22.24;50.72;100394.50;6192485;22;45552;-67
2023/06/09 04:32:16;;;;;;;;;22.75;20.50;;;;;22.23;50.77;100403.59;6192340;22;44941;-66
2023/06/09 04:34:45;;;;;;;;;24.50;20.25;;;;;22.22;51.01;100407.25;6191814;22;45441;-68
2023/06/09 04:37:12;;;;;;;;;30.00;23.75;;;;;22.21;50.90;100402.75;6191969;22;44862;-70
2023/06/09 04:39:41;;;;;;;;;22.50;22.50;;;;;22.17;50.74;100392.88;6191937;22;44926;-66
2023/06/09 04:42:07;;;;;;;;;23.00;22.50;;;;;22.21;50.81;100416.34;6190154;22;45290;-68
2023/06/09 04:44:33;;;;;;;;;22.00;19.75;;;;;22.12;50.89;100402.97;6191941;22;46371;-69
2023/06/09 04:46:59;;;;;;;;;25.00;23.50;;;;;22.21;51.09;100420.91;6191463;22;45172;-66
2023/06/09 04:49:25;;;;;;;;;28.75;21.00;;;;;22.21;50.85;100412.75;6191644;22;45003;-68
2023/06/09 04:51:51;;;;;;;;;24.00;21.50;;;;;22.20;51.04;100413.66;6190690;23;44898;-68
2023/06/09 04:54:17;;;;;;;;;20.75;18.50;;;;;22.19;50.92;100417.31;6191119;22;45502;-68
2023/06/09 04:56:44;;;;;;;;;19.00;17.50;;;;;22.19;51.06;100418.22;6190849;22;44913;-68
2023/06/09 04:59:13;;;;;;;;;26.75;21.75;;;;;22.21;51.05;100416.34;6190759;23;44882;-68
2023/06/09 05:01:40;;;;;;;;;21.75;21.75;;;;;22.20;50.91;100425.44;6191055;22;45054;-63
2023/06/09 05:04:08;;;;;;;;;23.50;19.50;;;;;22.20;50.91;100422.72;6190820;22;46195;-68
2023/06/09 05:06:33;;;;;;;;;21.00;19.50;;;;;22.18;50.80;100416.44;6189432;23;45058;-67
2023/06/09 05:08:59;;;;;;;;;23.50;21.75;;;;;22.22;50.70;100422.69;6190730;22;45241;-66
2023/06/09 05:11:25;;;;;;;;;22.50;21.50;;;;;22.18;50.73;100410.09;6191400;22;44889;-64
2023/06/09 05:13:50;;;;;;;;;27.50;24.25;;;;;22.22;50.77;100417.22;6187713;23;46893;-65
2023/06/09 05:16:15;;;;;;;;;24.25;22.50;;;;;22.23;50.75;100419.91;6189409;22;45407;-63
2023/06/09 05:18:43;;;;;;;;;23.00;23.00;;;;;22.25;50.34;100419.88;6190686;22;45284;-64
2023/06/09 05:21:10;;;;;;;;;26.25;24.25;;;;;22.27;50.36;100409.84;6191236;23;45245;-66
2023/06/09 05:23:35;;;;;;;;;23.50;21.75;;;;;22.30;50.20;100417.94;6191526;23;45597;-63
2023/06/09 05:26:02;;;;;;;;;28.25;24.00;;;;;22.24;50.15;100394.50;6191089;23;45126;-64
2023/06/09 05:28:27;;;;;;;;;26.00;25.00;;;;;22.35;49.94;100421.44;6184627;23;45219;-68
2023/06/09 05:30:53;;;;;;;;;39.75;33.00;;;;;22.30;49.97;100401.63;6180552;22;45258;-66
2023/06/09 05:33:18;;;;;;;;;20.50;19.25;;;;;22.29;49.58;100398.94;6179567;22;45436;-67
2023/06/09 05:35:45;;;;;;;;;17.75;17.00;;;;;22.37;49.31;100407.78;6179502;22;45583;-65
2023/06/09 05:38:11;;;;;;;;;19.75;18.75;;;;;22.45;49.41;100416.63;6179019;23;45462;-70
2023/06/09 05:40:37;;;;;;;;;19.00;19.00;;;;;22.51;49.22;100424.63;6180214;22;45424;-70
2023/06/09 05:43:02;;;;;;;;;22.25;20.50;;;;;22.51;49.28;100424.63;6179888;22;45353;-64
2023/06/09 05:45:28;;;;;;;;;20.25;18.00;;;;;22.51;48.88;100419.19;6179172;23;45367;-67
2023/06/09 05:47:53;;;;;;;;;40.75;34.25;;;;;22.52;49.21;100420.06;6178981;22;45412;-66
2023/06/09 05:50:18;;;;;;;;;25.25;23.75;;;;;22.53;48.84;100424.59;6179504;22;45268;-64
2023/06/09 05:52:44;;;;;;;;;20.75;17.25;;;;;22.63;48.93;100434.28;6179752;23;46127;-64
2023/06/09 05:55:09;;;;;;;;;19.75;16.75;;;;;22.68;48.68;100440.47;6179349;22;45262;-63
2023/06/09 05:57:36;;;;;;;;;21.00;16.75;;;;;22.71;48.63;100439.50;6179123;23;45539;-67
2023/06/09 06:00:09;;;;;;;;;21.00;18.00;;;;;22.54;48.32;100402.78;6179613;23;45771;-68
2023/06/09 06:02:34;;;;;;;;;25.50;19.75;;;;;22.77;48.31;100433.91;6179018;22;45322;-70
2023/06/09 06:05:01;;;;;;;;;24.50;21.75;;;;;22.82;48.37;100435.53;6178586;22;45425;-65
2023/06/09 06:07:26;;;;;;;;;26.00;24.75;;;;;22.87;48.08;100449.03;6178640;23;45366;-64
2023/06/09 06:09:52;;;;;;;;;24.50;21.00;;;;;22.90;47.91;100438.03;6179242;22;45566;-64
2023/06/09 06:12:17;;;;;;;;;21.00;17.75;;;;;22.89;47.97;100428.06;6179493;22;46115;-66
2023/06/09 06:14:42;;;;;;;;;21.00;18.75;;;;;22.92;47.77;100428.00;6178884;22;45431;-67
2023/06/09 06:17:08;;;;;;;;;17.75;16.25;;;;;23.07;47.34;100439.41;6179006;22;45453;-65
2023/06/09 06:19:33;;;;;;;;;17.75;17.75;;;;;23.04;47.29;100431.28;6177960;22;45247;-64
2023/06/09 06:21:59;;;;;;;;;15.33;15.33;;;;;23.15;47.32;100442.78;6178764;22;45626;-64
2023/06/09 06:24:24;;;;;;;;;21.50;17.25;;;;;23.19;47.11;100433.56;6179023;22;45400;-64
2023/06/09 06:26:53;;;;;;;;;19.50;18.00;;;;;23.08;47.08;100405.75;6178818;23;45364;-65
2023/06/09 06:29:18;;;;;;;;;21.75;19.25;;;;;23.25;46.88;100427.06;6178927;23;45494;-65
2023/06/09 06:31:43;;;;;;;;;26.75;20.50;;;;;23.32;46.83;100437.69;6178680;22;45933;-69
2023/06/09 06:34:09;;;;;;;;;21.50;20.25;;;;;23.30;46.62;100423.22;6181487;22;45210;-64
2023/06/09 06:36:35;;;;;;;;;18.00;16.67;;;;;23.44;46.37;100436.41;6178212;22;45306;-63
2023/06/09 06:39:00;;;;;;;;;21.75;20.75;;;;;23.49;46.19;100431.69;6179068;22;45207;-66
2023/06/09 06:41:25;;;;;;;;;21.50;20.00;;;;;23.57;46.36;100434.19;6178001;22;45284;-67
2023/06/09 06:43:51;;;;;;;;;15.67;15.00;;;;;23.62;46.14;100426.75;6179230;23;45283;-66
2023/06/09 06:46:17;;;;;;;;;20.25;19.50;;;;;23.69;45.88;100431.06;6177023;23;45392;-67
2023/06/09 06:48:43;;;;;;;;;21.75;19.00;;;;;23.60;46.04;100406.81;6185450;23;44936;-66
2023/06/09 06:51:08;;;;;;;;;22.50;19.50;;;;;23.77;45.81;100436.25;6185504;22;45507;-68
2023/06/09 06:53:36;;;;;;;;;23.25;18.75;;;;;23.88;45.52;100441.41;6182123;23;45347;-66
2023/06/09 06:56:02;;;;;;;;;21.67;18.33;;;;;23.95;45.22;100433.88;6178506;22;45491;-65
2023/06/09 06:58:28;;;;;;;;;37.00;32.75;;;;;23.99;45.34;100436.47;6178358;23;45421;-67
2023/06/09 07:00:55;;;;;;;;;29.50;23.00;;;;;24.08;45.04;100438.88;6178626;23;47360;-67
2023/06/09 07:03:20;;;;;;;;;34.50;26.75;;;;;24.14;44.64;100435.03;6179041;23;45189;-64
2023/06/09 07:05:45;;;;;;;;;20.00;18.33;;;;;24.05;44.51;100402.59;6179228;22;45550;-65
2023/06/09 07:08:11;;;;;;;;;18.33;16.67;;;;;24.27;44.54;100430.94;6179514;22;45405;-67
2023/06/09 07:10:36;;;;;;;;;23.75;21.75;;;;;24.31;44.36;100422.63;6176903;23;47281;-69
2023/06/09 07:13:05;;;;;;;;;20.67;19.33;;;;;24.37;43.85;100422.41;6178831;22;45350;-69
2023/06/09 07:15:30;;;;;;;;;21.33;18.67;;;;;24.39;44.35;100423.25;6179521;22;45411;-67
2023/06/09 07:17:56;;;;;;;;;23.25;19.25;;;;;24.40;43.73;100414.09;6180138;23;45648;-67
2023/06/09 07:20:21;;;;;;;;;27.25;21.75;;;;;24.55;43.53;100434.50;6176528;23;46454;-69
2023/06/09 07:22:50;;;;;;;;;20.50;20.25;;;;;24.54;43.41;100430.88;6177528;23;45693;-66
2023/06/09 07:25:16;;;;;;;;;34.50;30.25;;;;;24.67;43.45;100442.28;6151750;23;45346;-68
2023/06/09 07:27:42;;;;;;;;;23.00;21.00;;;;;24.72;43.75;100440.28;6179555;22;45235;-70
2023/06/09 07:30:08;;;;;;;;;19.67;17.67;;;;;24.82;43.16;100446.28;6178861;23;45305;-66
2023/06/09 07:32:33;;;;;;;;;15.50;15.50;;;;;24.83;42.72;100451.69;6178171;23;45204;-68
2023/06/09 07:35:00;;;;;;;;;21.00;18.75;;;;;24.94;42.54;100456.72;6178925;23;45418;-65
2023/06/09 07:37:25;;;;;;;;;23.67;20.00;;;;;24.90;42.16;100446.00;6179125;22;45631;-64
2023/06/09 07:39:51;;;;;;;;;25.00;17.67;;;;;24.96;42.06;100438.47;6177843;23;46251;-66
2023/06/09 07:42:16;;;;;;;;;21.75;18.75;;;;;25.15;42.05;100456.88;6178703;23;45204;-70
2023/06/09 07:44:41;;;;;;;;;20.00;18.00;;;;;25.05;42.19;100430.84;6178357;23;45375;-68
2023/06/09 07:47:07;;;;;;;;;26.33;22.33;;;;;25.29;41.85;100450.88;6178981;23;45444;-69
2023/06/09 07:49:32;;;;;;;;;26.33;18.33;;;;;25.23;41.18;100424.66;6176246;23;46832;-65
2023/06/09 07:51:59;;;;;;;;;18.67;15.00;;;;;25.43;41.12;100439.41;6178026;23;45365;-67
2023/06/09 07:54:24;;;;;;;;;26.75;22.25;;;;;25.55;41.08;100448.00;6178910;23;45211;-66
2023/06/09 07:56:50;;;;;;;;;15.33;15.33;;;;;25.63;40.63;100457.75;6178245;23;45346;-67
2023/06/09 07:59:19;;;;;;;;;15.33;14.33;;;;;25.64;40.25;100437.63;6177704;22;46194;-70
2023/06/09 08:01:45;;;;;;;;;16.67;14.00;;;;;25.76;40.38;100448.09;6178458;22;45424;-68
2023/06/09 08:04:11;;;;;;;;;18.67;17.00;;;;;25.80;39.98;100444.25;6178152;23;45426;-66
2023/06/09 08:06:37;;;;;;;;;29.00;24.00;;;;;25.92;39.63;100451.97;6178536;23;45396;-69
2023/06/09 08:09:03;;;;;;;;;23.33;15.00;;;;;25.90;39.34;100444.75;6177767;23;46000;-65
2023/06/09 08:11:28;;;;;;;;;17.67;16.67;;;;;25.94;39.64;100446.44;6177192;23;45366;-66
2023/06/09 08:13:53;;;;;;;;;18.00;16.33;;;;;26.00;39.68;100434.34;6178100;22;45473;-69
2023/06/09 08:16:19;;;;;;;;;20.33;19.00;;;;;26.09;39.68;100437.56;6179377;23;45303;-69
2023/06/09 08:18:44;;;;;;;;;23.00;17.00;;;;;26.21;39.44;100436.16;6177818;23;45498;-69
2023/06/09 08:21:11;;;;;;;;;16.33;14.33;;;;;26.29;39.51;100419.38;6178255;23;45375;-69
2023/06/09 08:23:36;;;;;;;;;31.50;27.25;;;;;26.42;39.46;100427.97;6178026;23;45179;-66
2023/06/09 08:26:01;;;;;;;;;14.00;14.00;;;;;26.51;39.25;100416.56;6177818;23;45318;-70
2023/06/09 08:28:27;;;;;;;;;21.33;19.33;;;;;26.60;39.13;100413.41;6175978;23;48082;-70
2023/06/09 08:30:53;;;;;;;;;15.00;13.00;;;;;26.66;38.85;100404.97;6178124;22;45598;-65
2023/06/09 08:33:18;;;;;;;;;18.33;15.33;;;;;26.71;38.53;100398.34;6176717;23;45635;-66
2023/06/09 08:35:44;;;;;;;;;16.33;15.33;;;;;26.78;38.66;100388.91;6179939;23;45719;-64
2023/06/09 08:38:09;;;;;;;;;24.33;16.67;;;;;26.95;38.04;100413.66;6180178;22;46102;-66
2023/06/09 08:40:35;;;;;;;;;21.67;14.33;;;;;27.02;38.21;100404.16;6177179;23;45382;-66
2023/06/09 08:43:05;;;;;;;;;17.67;17.67;;;;;27.03;37.91;100400.47;6180313;22;45243;-69
2023/06/09 08:45:33;;;;;;;;;21.00;14.00;;;;;27.18;37.72;100409.81;6180612;23;45225;-65
2023/06/09 08:48:00;;;;;;;;;19.00;16.33;;;;;27.27;37.98;100410.34;6178292;23;45600;-66
2023/06/09 08:50:30;;;;;;;;;20.67;18.33;;;;;27.36;37.64;100408.06;6179443;23;45504;-63
2023/06/09 08:52:56;;;;;;;;;17.33;14.33;;;;;27.38;37.41;100402.50;6178483;22;45291;-66
2023/06/09 08:55:22;;;;;;;;;20.33;16.67;;;;;27.49;37.07;100408.38;6177504;23;45402;-65
2023/06/09 08:57:49;;;;;;;;;27.33;19.33;;;;;27.49;37.12;100400.13;6179222;23;45401;-66
2023/06/09 09:00:15;;;;;;;;;19.33;16.00;;;;;27.54;36.83;100386.19;6178673;22;45600;-65
2023/06/09 09:02:43;;;;;;;;;21.67;20.00;;;;;27.64;37.13;100392.09;6179705;23;45417;-64
2023/06/09 09:05:09;;;;;;;;;23.67;19.33;;;;;27.75;37.33;100393.34;6179170;23;45497;-65
2023/06/09 09:07:35;;;;;;;;;17.33;16.00;;;;;27.84;36.83;100391.09;6176168;23;46873;-65
2023/06/09 09:10:01;;;;;;;;;21.33;15.00;;;;;27.92;36.73;100395.22;6179142;22;45447;-66
2023/06/09 09:12:26;;;;;;;;;18.33;17.33;;;;;27.96;36.59;100389.59;6180722;23;45633;-67
2023/06/09 09:14:51;;;;;;;;;16.67;15.67;;;;;28.07;35.99;100396.31;6180935;23;45454;-64
2023/06/09 09:17:17;;;;;;;;;14.67;13.33;;;;;28.20;36.26;100401.16;6177842;23;46325;-69
2023/06/09 09:19:51;;;;;;;;;20.33;17.33;;;;;28.24;36.00;100397.28;6179487;23;45276;-66
2023/06/09 09:22:17;;;;;;;;;16.67;16.67;;;;;28.35;35.83;100388.47;6178899;23;45433;-69
2023/06/09 09:24:46;;;;;;;;;18.33;17.00;;;;;28.42;35.56;100393.53;6177972;22;45390;-64
2023/06/09 09:27:17;;;;;;;;;16.33;15.67;;;;;28.48;34.34;100381.34;6177391;23;47648;-67
2023/06/09 09:29:43;;;;;;;;;18.67;15.33;;;;;28.52;33.89;100380.19;6177240;23;45778;-64
2023/06/09 09:32:09;;;;;;;;;22.33;19.00;;;;;28.55;33.68;100387.41;6180085;23;45148;-68
2023/06/09 09:34:34;;;;;;;;;17.67;15.33;;;;;28.39;33.97;100365.34;6178880;22;45757;-66
2023/06/09 09:37:01;;;;;;;;;17.67;16.67;;;;;28.54;33.77;100380.97;6179791;22;46484;-71
2023/06/09 09:39:27;;;;;;;;;19.33;18.00;;;;;28.57;34.31;100369.88;6176892;23;45370;-73
2023/06/09 09:42:07;;;;;;;;;18.67;14.67;;;;;28.78;34.50;100380.66;6177606;23;45368;-69
2023/06/09 09:44:40;;;;;;;;;20.67;18.00;;;;;28.81;34.06;100370.38;6177525;23;45352;-67
2023/06/09 09:47:08;;;;;;;;;18.00;18.00;;;;;28.91;33.76;100373.50;6177151;23;45857;-70
2023/06/09 09:49:34;;;;;;;;;19.33;18.00;;;;;28.93;33.70;100359.66;6178859;23;45211;-71
2023/06/09 09:52:00;;;;;;;;;15.33;15.33;;;;;29.11;33.35;100377.88;6180585;23;45367;-67
2023/06/09 09:54:27;;;;;;;;;16.33;16.00;;;;;29.14;32.88;100358.44;6179448;23;45254;-71
2023/06/09 09:56:58;;;;;;;;;20.67;20.67;;;;;29.31;32.50;100370.38;6177109;23;46682;-71
2023/06/09 09:59:25;;;;;;;;;19.33;18.00;;;;;29.40;32.73;100369.81;6179666;22;45385;-65
2023/06/09 10:01:54;;;;;;;;;17.00;15.67;;;;;29.49;32.13;100361.03;6177751;23;45328;-67
2023/06/09 10:04:23;;;;;;;;;18.00;15.33;;;;;29.53;32.32;100353.47;6179461;23;45273;-68
2023/06/09 10:06:53;;;;;;;;;16.33;14.67;;;;;29.58;32.50;100351.34;6189352;22;46391;-66
2023/06/09 10:09:22;;;;;;;;;19.33;15.00;;;;;29.58;31.39;100344.00;6191029;22;44897;-67
2023/06/09 10:11:48;;;;;;;;;14.33;14.00;;;;;29.74;31.40;100352.19;6189864;23;45180;-66
2023/06/09 10:14:14;;;;;;;;;15.33;15.33;;;;;29.81;31.67;100358.25;6190555;23;44872;-66
2023/06/09 10:16:41;;;;;;;;;11.00;11.00;;;;;29.80;31.27;100344.56;6189611;23;47818;-66
2023/06/09 10:19:07;;;;;;;;;17.67;14.33;;;;;29.94;31.13;100350.13;6190400;22;45165;-64
2023/06/09 10:21:35;;;;;;;;;16.00;16.00;;;;;29.90;31.19;100334.81;6184191;22;45419;-66
2023/06/09 10:24:02;;;;;;;;;14.00;13.67;;;;;29.94;30.93;100339.13;6176732;23;45483;-66
2023/06/09 10:26:28;;;;;;;;;19.00;15.00;;;;;29.77;30.54;100305.22;6177544;22;46136;-70
2023/06/09 10:28:53;;;;;;;;;20.00;15.33;;;;;30.05;30.89;100349.50;6176922;23;45698;-65
2023/06/09 10:31:21;;;;;;;;;18.33;15.33;;;;;30.05;29.96;100355.00;6179011;23;45361;-63
2023/06/09 10:33:48;;;;;;;;;21.33;17.00;;;;;30.04;30.09;100350.47;6179967;23;45470;-64
2023/06/09 10:36:14;;;;;;;;;15.67;14.67;;;;;30.02;30.30;100350.56;6178689;22;45670;-66
2023/06/09 10:38:42;;;;;;;;;17.67;17.67;;;;;30.05;30.35;100360.50;6177719;22;45187;-65
2023/06/09 10:41:39;;;;;;;;;22.75;22.00;;;;;30.03;30.75;100348.69;6178930;22;45573;-66
2023/06/09 10:44:21;;;;;;;;;18.67;14.67;;;;;30.04;30.71;100348.59;6179350;23;45235;-69
2023/06/09 10:46:48;;;;;;;;;15.33;15.33;;;;;29.93;31.13;100335.50;6176606;23;46358;-65
2023/06/09 10:49:26;;;;;;;;;20.00;16.67;;;;;30.03;30.68;100346.84;6179140;22;45260;-65
2023/06/09 10:51:55;;;;;;;;;14.67;14.67;;;;;30.00;30.88;100349.78;6179119;22;45294;-64
2023/06/09 10:54:23;;;;;;;;;16.67;15.00;;;;;30.05;31.09;100349.50;6179835;22;45547;-63
2023/06/09 10:57:00;;;;;;;;;16.33;13.33;;;;;30.02;30.25;100349.69;6176124;23;47546;-62
2023/06/09 10:59:25;;;;;;;;;17.67;15.00;;;;;30.02;29.83;100346.94;6178985;23;45437;-64
2023/06/09 11:02:00;;;;;;;;;23.00;20.67;;;;;30.03;30.50;100346.84;6175411;23;45386;-69
2023/06/09 11:04:41;;;;;;;;;18.33;14.33;;;;;30.02;30.79;100349.69;6181364;23;45573;-67
2023/06/09 11:07:15;;;;;;;;;17.00;17.00;;;;;29.98;29.77;100337.06;6184288;22;45823;-67
2023/06/09 11:09:59;;;;;;;;;13.33;13.33;;;;;30.05;30.06;100341.22;6178079;22;45512;-69
2023/06/09 11:12:24;;;;;;;;;18.67;14.67;;;;;30.10;30.16;100345.47;6175938;23;45444;-64
2023/06/09 11:14:58;;;;;;;;;15.33;13.33;;;;;30.18;29.94;100355.09;6179279;22;45344;-70
2023/06/09 11:17:34;;;;;;;;;20.67;17.67;;;;;30.26;29.58;100352.78;6174199;23;47379;-69
2023/06/09 11:22:43;;;;;;;;;16.00;13.00;;;;;30.38;29.33;100352.06;6179094;23;45333;-68
2023/06/09 11:25:30;;;;;;;;;13.67;12.67;;;;;30.29;28.64;100342.47;6175650;23;45467;-68
2023/06/09 11:27:55;;;;;;;;;17.00;14.00;;;;;30.28;29.41;100354.47;6161331;23;46225;-69